createdAt,value
2019-06-15T00:01:48.286Z,5.80
2019-06-15T00:04:45.120Z,4.67
2019-06-15T00:07:50.840Z,4.87
2019-06-15T00:10:43.195Z,3.77
2019-06-15T00:13:51.295Z,4.70
2019-06-15T00:16:59.390Z,4.20
2019-06-15T00:19:56.686Z,4.07
2019-06-15T00:23:05.238Z,4.20
2019-06-15T00:26:05.394Z,5.87
2019-06-15T00:29:07.527Z,6.40
2019-06-15T00:32:26.352Z,5.30
2019-06-15T00:35:32.332Z,5.60
2019-06-15T00:38:45.308Z,4.70
2019-06-15T00:41:41.681Z,4.87
2019-06-15T00:44:50.952Z,4.43
2019-06-15T00:47:53.301Z,4.80
2019-06-15T00:51:00.078Z,5.10
2019-06-15T00:54:05.940Z,4.10
2019-06-15T00:57:06.792Z,5.80
2019-06-15T01:00:09.759Z,3.63
2019-06-15T01:03:01.533Z,2.93
2019-06-15T01:05:46.985Z,3.67
2019-06-15T01:08:40.127Z,4.10
2019-06-15T01:11:31.658Z,3.47
2019-06-15T01:14:25.368Z,4.17
2019-06-15T01:17:19.483Z,3.53
2019-06-15T01:20:24.619Z,6.23
2019-06-15T01:23:32.323Z,5.27
2019-06-15T01:26:41.578Z,3.87
2019-06-15T01:29:44.470Z,2.70
2019-06-15T01:32:48.386Z,3.63
2019-06-15T01:35:53.368Z,3.20
2019-06-15T01:38:55.872Z,3.33
2019-06-15T01:42:06.162Z,3.60
2019-06-15T01:45:10.817Z,4.30
2019-06-15T01:48:24.713Z,4.23
2019-06-15T01:51:32.248Z,4.10
2019-06-15T01:54:49.514Z,3.60
2019-06-15T01:57:26.806Z,4.77
2019-06-15T01:59:58.029Z,4.07
2019-06-15T02:02:29.552Z,5.87
2019-06-15T02:05:01.048Z,4.70
2019-06-15T02:07:32.397Z,4.77
2019-06-15T02:10:03.580Z,6.87
2019-06-15T02:12:34.842Z,7.73
2019-06-15T02:15:06.420Z,8.03
2019-06-15T02:17:38.061Z,5.90
2019-06-15T02:20:09.499Z,5.63
2019-06-15T02:22:43.600Z,7.30
2019-06-15T02:25:34.824Z,6.93
2019-06-15T02:27:56.119Z,6.10
2019-06-15T02:30:31.177Z,5.30
2019-06-15T02:33:02.786Z,6.27
2019-06-15T02:35:34.042Z,7.53
2019-06-15T02:38:05.352Z,7.23
2019-06-15T02:40:36.614Z,8.00
2019-06-15T02:43:08.352Z,7.57
2019-06-15T02:45:39.673Z,6.80
2019-06-15T02:48:11.472Z,9.37
2019-06-15T02:50:43.442Z,10.20
2019-06-15T02:53:14.815Z,10.40
2019-06-15T02:55:50.641Z,9.53
2019-06-15T02:58:19.735Z,11.27
2019-06-15T03:01:07.765Z,9.17
2019-06-15T03:03:38.973Z,8.07
2019-06-15T03:06:10.558Z,11.93
2019-06-15T03:08:42.153Z,10.07
2019-06-15T03:11:13.630Z,8.53
2019-06-15T03:13:45.131Z,12.37
2019-06-15T03:16:16.383Z,10.93
2019-06-15T03:18:47.677Z,10.60
2019-06-15T03:21:18.957Z,8.90
2019-06-15T03:23:50.549Z,8.33
2019-06-15T03:26:23.134Z,7.43
2019-06-15T03:28:54.600Z,7.70
2019-06-15T03:31:25.918Z,9.20
2019-06-15T03:33:57.238Z,7.57
2019-06-15T03:36:28.609Z,7.10
2019-06-15T03:38:59.871Z,7.73
2019-06-15T03:41:31.221Z,8.40
2019-06-15T03:44:03.287Z,9.33
2019-06-15T03:46:34.555Z,11.23
2019-06-15T03:49:05.912Z,8.67
2019-06-15T03:51:37.632Z,9.50
2019-06-15T03:54:09.268Z,9.27
2019-06-15T03:56:40.792Z,9.70
2019-06-15T03:59:12.084Z,10.63
2019-06-15T04:01:48.568Z,13.90
2019-06-15T04:04:20.097Z,10.73
2019-06-15T04:06:51.513Z,11.77
2019-06-15T04:09:23.012Z,10.63
2019-06-15T04:11:54.286Z,16.93
2019-06-15T04:14:25.748Z,12.63
2019-06-15T04:16:57.109Z,12.37
2019-06-15T04:19:28.574Z,12.23
2019-06-15T04:22:00.031Z,14.03
2019-06-15T04:24:31.288Z,12.97
2019-06-15T04:27:02.758Z,12.67
2019-06-15T04:29:34.090Z,12.30
2019-06-15T04:32:05.684Z,13.93
2019-06-15T04:34:37.184Z,14.60
2019-06-15T04:37:08.546Z,16.30
2019-06-15T04:39:39.893Z,16.33
2019-06-15T04:42:11.236Z,17.13
2019-06-15T04:44:42.593Z,18.40
2019-06-15T04:47:13.881Z,20.93
2019-06-15T04:49:45.405Z,21.07
2019-06-15T04:52:16.911Z,21.30
2019-06-15T04:54:48.398Z,20.97
2019-06-15T04:57:20.122Z,20.97
2019-06-15T04:59:51.660Z,19.90
2019-06-15T05:02:23.211Z,19.47
2019-06-15T05:04:54.830Z,18.30
2019-06-15T05:07:26.220Z,15.53
2019-06-15T05:09:58.028Z,15.17
2019-06-15T05:12:29.343Z,15.23
2019-06-15T05:15:00.978Z,15.63
2019-06-15T05:17:32.516Z,15.73
2019-06-15T05:20:03.987Z,15.80
2019-06-15T05:22:35.319Z,17.87
2019-06-15T05:25:06.866Z,14.83
2019-06-15T05:27:38.169Z,14.60
2019-06-15T05:30:10.265Z,15.20
2019-06-15T05:32:41.663Z,15.87
2019-06-15T05:35:13.527Z,15.03
2019-06-15T05:37:45.322Z,14.97
2019-06-15T05:40:16.897Z,13.40
2019-06-15T05:42:48.896Z,16.40
2019-06-15T05:45:20.688Z,12.97
2019-06-15T05:47:52.073Z,11.40
2019-06-15T05:50:23.394Z,11.87
2019-06-15T05:52:55.055Z,11.87
2019-06-15T05:55:26.717Z,12.73
2019-06-15T05:57:58.330Z,14.10
2019-06-15T06:00:30.080Z,11.40
2019-06-15T06:03:01.629Z,12.33
2019-06-15T06:05:33.943Z,12.83
2019-06-15T06:08:05.261Z,9.10
2019-06-15T06:10:36.687Z,10.27
2019-06-15T06:13:08.056Z,9.23
2019-06-15T06:15:39.765Z,8.50
2019-06-15T06:18:11.207Z,8.13
2019-06-15T06:20:42.521Z,8.20
2019-06-15T06:23:13.894Z,8.47
2019-06-15T06:25:47.725Z,7.33
2019-06-15T06:28:19.136Z,7.67
2019-06-15T06:30:50.456Z,7.27
2019-06-15T06:33:21.865Z,6.87
2019-06-15T06:35:53.252Z,6.87
2019-06-15T06:38:24.965Z,9.70
2019-06-15T06:40:56.340Z,10.00
2019-06-15T06:43:28.087Z,7.33
2019-06-15T06:46:00.132Z,7.83
2019-06-15T06:48:31.535Z,7.50
2019-06-15T06:51:02.966Z,7.23
2019-06-15T06:53:34.444Z,8.37
2019-06-15T06:56:06.132Z,6.57
2019-06-15T06:58:37.539Z,8.53
2019-06-15T07:01:09.222Z,13.57
2019-06-15T07:03:40.668Z,6.73
2019-06-15T07:06:12.070Z,6.37
2019-06-15T07:08:43.671Z,9.63
2019-06-15T07:11:15.047Z,9.07
2019-06-15T07:13:46.536Z,6.33
2019-06-15T07:16:18.074Z,5.80
2019-06-15T07:18:49.735Z,5.47
2019-06-15T07:21:21.160Z,5.93
2019-06-15T07:23:52.607Z,9.83
2019-06-15T07:26:23.924Z,7.93
2019-06-15T07:28:55.525Z,6.63
2019-06-15T07:31:26.963Z,6.70
2019-06-15T07:33:58.278Z,9.10
2019-06-15T07:36:29.643Z,9.37
2019-06-15T07:39:01.629Z,9.27
2019-06-15T07:41:34.668Z,7.03
2019-06-15T07:44:06.076Z,9.83
2019-06-15T07:46:37.420Z,6.33
2019-06-15T07:49:08.941Z,6.83
2019-06-15T07:51:40.476Z,7.00
2019-06-15T07:54:12.206Z,8.77
2019-06-15T07:56:43.943Z,7.93
2019-06-15T07:59:15.847Z,6.63
2019-06-15T08:01:47.131Z,8.00
2019-06-15T08:04:18.619Z,9.33
2019-06-15T08:06:50.022Z,9.40
2019-06-15T08:09:21.414Z,9.60
2019-06-15T08:11:52.920Z,7.00
2019-06-15T08:14:24.382Z,7.60
2019-06-15T08:16:55.763Z,9.07
2019-06-15T08:19:27.139Z,6.83
2019-06-15T08:21:58.465Z,8.23
2019-06-15T08:24:30.141Z,8.67
2019-06-15T08:27:08.720Z,8.17
2019-06-15T08:29:41.523Z,8.47
2019-06-15T08:32:13.265Z,9.27
2019-06-15T08:34:44.624Z,9.23
2019-06-15T08:37:16.372Z,9.67
2019-06-15T08:39:47.920Z,8.23
2019-06-15T08:42:19.485Z,8.30
2019-06-15T08:44:51.113Z,7.93
2019-06-15T08:47:22.806Z,7.33
2019-06-15T08:49:54.115Z,7.73
2019-06-15T08:52:25.505Z,8.63
2019-06-15T08:54:56.869Z,8.30
2019-06-15T08:57:28.469Z,8.33
2019-06-15T08:59:59.974Z,8.40
2019-06-15T09:02:31.450Z,9.40
2019-06-15T09:05:02.762Z,8.60
2019-06-15T09:07:35.402Z,7.63
2019-06-15T09:10:07.174Z,7.13
2019-06-15T09:12:38.833Z,7.87
2019-06-15T09:15:11.122Z,8.63
2019-06-15T09:17:42.553Z,8.37
2019-06-15T09:20:14.259Z,9.50
2019-06-15T09:22:45.580Z,8.97
2019-06-15T09:25:16.910Z,9.07
2019-06-15T09:27:48.249Z,7.53
2019-06-15T09:30:19.757Z,6.47
2019-06-15T09:32:52.447Z,6.60
2019-06-15T09:35:23.751Z,7.03
2019-06-15T09:37:55.323Z,7.70
2019-06-15T09:40:26.781Z,6.40
2019-06-15T09:42:58.254Z,5.23
2019-06-15T09:45:32.801Z,6.50
2019-06-15T09:48:02.818Z,7.63
2019-06-15T09:50:34.274Z,6.87
2019-06-15T09:53:05.873Z,5.77
2019-06-15T09:55:37.377Z,5.67
2019-06-15T09:58:08.932Z,5.93
2019-06-15T10:00:40.549Z,6.50
2019-06-15T10:03:11.781Z,5.87
2019-06-15T10:05:43.424Z,6.57
2019-06-15T10:08:14.958Z,5.77
2019-06-15T10:10:46.833Z,5.07
2019-06-15T10:13:18.191Z,6.73
2019-06-15T10:15:49.746Z,5.30
2019-06-15T10:18:21.069Z,6.30
2019-06-15T10:20:52.705Z,5.53
2019-06-15T10:23:24.151Z,5.67
2019-06-15T10:25:55.518Z,6.20
2019-06-15T10:28:26.917Z,6.17
2019-06-15T10:31:00.768Z,6.27
2019-06-15T10:33:31.475Z,5.43
2019-06-15T10:36:02.803Z,6.97
2019-06-15T10:38:34.238Z,4.83
2019-06-15T10:41:06.146Z,7.37
2019-06-15T10:43:37.480Z,7.87
2019-06-15T10:46:09.128Z,4.33
2019-06-15T10:48:40.523Z,6.10
2019-06-15T10:51:11.796Z,5.90
2019-06-15T10:53:43.620Z,4.87
2019-06-15T10:56:15.028Z,5.67
2019-06-15T10:58:46.953Z,5.43
2019-06-15T11:01:18.844Z,3.60
2019-06-15T11:03:50.133Z,5.70
2019-06-15T11:06:22.479Z,5.67
2019-06-15T11:08:53.771Z,4.63
2019-06-15T11:11:25.332Z,4.50
2019-06-15T11:13:57.017Z,4.37
2019-06-15T11:16:28.994Z,3.93
2019-06-15T11:19:00.587Z,4.10
2019-06-15T11:21:32.000Z,3.83
2019-06-15T11:24:03.324Z,4.33
2019-06-15T11:26:34.675Z,3.90
2019-06-15T11:29:05.925Z,3.90
2019-06-15T11:31:37.230Z,2.93
2019-06-15T11:34:08.542Z,3.60
2019-06-15T11:36:40.897Z,4.70
2019-06-15T11:39:12.399Z,2.87
2019-06-15T11:41:44.053Z,3.20
2019-06-15T11:44:17.124Z,3.47
2019-06-15T11:46:48.475Z,2.83
2019-06-15T11:49:20.111Z,3.13
2019-06-15T11:51:51.388Z,2.30
2019-06-15T11:54:23.087Z,4.97
2019-06-15T11:56:54.343Z,2.93
2019-06-15T11:59:25.894Z,3.83
2019-06-15T12:01:57.380Z,6.30
2019-06-15T12:04:29.080Z,2.77
2019-06-15T12:07:00.473Z,2.80
2019-06-15T12:09:32.194Z,4.80
2019-06-15T12:12:03.524Z,2.77
2019-06-15T12:14:34.867Z,3.83
2019-06-15T12:17:06.207Z,2.57
2019-06-15T12:19:37.914Z,2.83
2019-06-15T12:22:09.587Z,2.70
2019-06-15T12:24:41.087Z,3.90
2019-06-15T12:27:12.438Z,3.73
2019-06-15T12:29:44.136Z,3.60
2019-06-15T12:32:15.423Z,3.97
2019-06-15T12:34:47.106Z,4.53
2019-06-15T12:37:18.514Z,3.20
2019-06-15T12:39:49.910Z,3.73
2019-06-15T12:42:21.173Z,3.87
2019-06-15T12:44:52.559Z,5.10
2019-06-15T12:47:24.191Z,4.90
2019-06-15T12:49:55.463Z,3.23
2019-06-15T12:52:26.978Z,4.40
2019-06-15T12:54:58.371Z,3.63
2019-06-15T12:57:30.118Z,6.67
2019-06-15T13:00:01.431Z,6.33
2019-06-15T13:02:33.253Z,4.43
2019-06-15T13:05:05.504Z,4.47
2019-06-15T13:07:37.319Z,6.83
2019-06-15T13:10:09.551Z,6.83
2019-06-15T13:12:40.825Z,4.50
2019-06-15T13:15:12.756Z,5.40
2019-06-15T13:17:44.227Z,4.97
2019-06-15T13:20:15.849Z,4.60
2019-06-15T13:22:47.497Z,5.47
2019-06-15T13:25:18.769Z,5.53
2019-06-15T13:27:50.496Z,6.77
2019-06-15T13:30:22.577Z,6.87
2019-06-15T13:32:54.064Z,6.47
2019-06-15T13:35:25.418Z,7.17
2019-06-15T13:37:57.081Z,6.57
2019-06-15T13:40:28.619Z,6.30
2019-06-15T13:43:00.295Z,5.03
2019-06-15T13:45:32.014Z,5.03
2019-06-15T13:48:04.096Z,4.83
2019-06-15T13:50:35.770Z,4.43
2019-06-15T13:53:07.151Z,4.70
2019-06-15T13:55:38.593Z,4.20
2019-06-15T13:58:09.891Z,6.23
2019-06-15T14:00:41.374Z,4.53
2019-06-15T14:03:12.834Z,7.07
2019-06-15T14:05:44.275Z,5.87
2019-06-15T14:08:15.722Z,5.70
2019-06-15T14:10:47.391Z,6.17
2019-06-15T14:13:18.769Z,6.57
2019-06-15T14:15:50.473Z,5.63
2019-06-15T14:18:22.157Z,7.43
2019-06-15T14:20:53.677Z,6.87
2019-06-15T14:23:24.989Z,8.43
2019-06-15T14:25:56.416Z,6.87
2019-06-15T14:28:27.934Z,6.00
2019-06-15T14:30:59.927Z,4.77
2019-06-15T14:33:31.313Z,6.00
2019-06-15T14:36:02.710Z,6.03
2019-06-15T14:38:34.155Z,8.87
2019-06-15T14:41:05.441Z,6.47
2019-06-15T14:43:37.133Z,6.70
2019-06-15T14:46:09.019Z,6.93
2019-06-15T14:48:41.099Z,5.80
2019-06-15T14:51:12.826Z,5.47
2019-06-15T14:53:49.889Z,5.27
2019-06-15T14:56:17.216Z,6.10
2019-06-15T14:58:48.859Z,7.37
2019-06-15T15:01:21.455Z,5.33
2019-06-15T15:03:53.672Z,4.83
2019-06-15T15:06:26.074Z,4.47
2019-06-15T15:08:57.686Z,2.93
2019-06-15T15:11:28.970Z,4.23
2019-06-15T15:14:00.795Z,4.87
2019-06-15T15:16:32.179Z,3.27
2019-06-15T15:19:05.992Z,3.30
2019-06-15T15:21:37.220Z,3.70
2019-06-15T15:24:08.565Z,2.33
2019-06-15T15:26:40.050Z,3.63
2019-06-15T15:29:11.489Z,3.97
2019-06-15T15:31:42.912Z,3.93
2019-06-15T15:34:17.134Z,2.93
2019-06-15T15:36:47.817Z,4.13
2019-06-15T15:39:19.114Z,2.47
2019-06-15T15:41:50.624Z,5.33
2019-06-15T15:44:22.590Z,5.30
2019-06-15T15:46:56.755Z,4.43
2019-06-15T15:49:27.386Z,4.20
2019-06-15T15:51:58.847Z,3.70
2019-06-15T15:54:30.183Z,3.27
2019-06-15T15:57:01.527Z,2.80
2019-06-15T15:59:33.260Z,4.87
2019-06-15T16:02:06.668Z,3.83
2019-06-15T16:04:37.773Z,2.67
2019-06-15T16:07:09.346Z,2.77
2019-06-15T16:09:41.438Z,1.77
2019-06-15T16:12:12.794Z,1.77
2019-06-15T16:14:44.503Z,3.87
2019-06-15T16:17:15.905Z,3.27
2019-06-15T16:19:47.456Z,3.40
2019-06-15T16:22:18.822Z,2.90
2019-06-15T16:24:50.126Z,3.43
2019-06-15T16:27:22.027Z,2.90
2019-06-15T16:29:53.761Z,3.10
2019-06-15T16:32:26.355Z,4.03
2019-06-15T16:34:58.142Z,2.23
2019-06-15T16:37:29.827Z,2.50
2019-06-15T16:40:01.248Z,4.67
2019-06-15T16:42:32.729Z,4.10
2019-06-15T16:45:06.859Z,2.07
2019-06-15T16:47:38.026Z,2.63
2019-06-15T16:50:09.674Z,2.10
2019-06-15T16:52:41.083Z,5.03
2019-06-15T16:55:12.267Z,3.63
2019-06-15T16:57:46.469Z,2.03
2019-06-15T17:00:20.204Z,4.87
2019-06-15T17:02:51.818Z,2.30
2019-06-15T17:05:27.203Z,4.53
2019-06-15T17:07:57.407Z,2.13
2019-06-15T17:10:39.771Z,2.23
2019-06-15T17:13:12.195Z,2.93
2019-06-15T17:15:43.501Z,5.20
2019-06-15T17:18:15.177Z,2.83
2019-06-15T17:20:49.468Z,2.47
2019-06-15T17:23:21.456Z,2.63
2019-06-15T17:25:52.909Z,2.70
2019-06-15T17:28:25.945Z,2.93
2019-06-15T17:30:57.555Z,3.00
2019-06-15T17:33:37.663Z,3.33
2019-06-15T17:36:03.479Z,2.00
2019-06-15T17:38:36.979Z,5.33
2019-06-15T17:41:08.029Z,3.70
2019-06-15T17:43:40.072Z,6.27
2019-06-15T17:46:11.437Z,3.00
2019-06-15T17:48:42.888Z,4.90
2019-06-15T17:51:16.039Z,7.97
2019-06-15T17:53:47.633Z,6.10
2019-06-15T17:56:19.193Z,3.07
2019-06-15T17:58:51.224Z,2.67
2019-06-15T18:01:22.595Z,2.13
2019-06-15T18:03:55.389Z,1.53
2019-06-15T18:06:27.098Z,3.20
2019-06-15T18:08:58.385Z,4.53
2019-06-15T18:11:29.738Z,3.00
2019-06-15T18:14:01.324Z,3.77
2019-06-15T18:16:32.665Z,2.77
2019-06-15T18:19:06.793Z,5.30
2019-06-15T18:21:40.931Z,3.53
2019-06-15T18:24:10.526Z,4.67
2019-06-15T18:26:41.828Z,3.17
2019-06-15T18:29:13.150Z,4.67
2019-06-15T18:31:44.492Z,2.70
2019-06-15T18:34:16.991Z,2.07
2019-06-15T18:36:48.398Z,3.70
2019-06-15T18:39:19.814Z,4.47
2019-06-15T18:41:51.179Z,3.90
2019-06-15T18:44:22.781Z,4.73
2019-06-15T18:46:56.429Z,3.90
2019-06-15T18:49:31.738Z,3.60
2019-06-15T18:52:06.057Z,4.00
2019-06-15T18:54:36.516Z,3.30
2019-06-15T18:57:09.352Z,3.97
2019-06-15T18:59:43.237Z,3.87
2019-06-15T19:02:16.139Z,2.80
2019-06-15T19:04:49.691Z,4.83
2019-06-15T19:07:20.769Z,4.70
2019-06-15T19:09:52.363Z,3.40
2019-06-15T19:12:26.217Z,4.80
2019-06-15T19:14:56.936Z,9.57
2019-06-15T19:17:28.406Z,3.30
2019-06-15T19:19:59.824Z,4.77
2019-06-15T19:22:31.179Z,4.93
2019-06-15T19:25:02.825Z,3.77
2019-06-15T19:27:36.390Z,4.40
2019-06-15T19:30:07.499Z,5.13
2019-06-15T19:32:38.979Z,2.83
2019-06-15T19:35:10.739Z,2.33
2019-06-15T19:37:42.124Z,3.47
2019-06-15T19:40:16.025Z,4.93
2019-06-15T19:42:46.907Z,4.33
2019-06-15T19:45:20.754Z,3.33
2019-06-15T19:47:52.305Z,3.17
2019-06-15T19:50:26.734Z,4.57
2019-06-15T19:52:58.385Z,5.57
2019-06-15T19:55:30.243Z,4.90
2019-06-15T19:58:01.679Z,5.37
2019-06-15T20:00:33.323Z,5.67
2019-06-15T20:03:07.081Z,8.37
2019-06-15T20:05:37.742Z,7.10
2019-06-15T20:08:09.900Z,6.43
2019-06-15T20:10:41.173Z,5.60
2019-06-15T20:13:14.103Z,5.93
2019-06-15T20:15:46.995Z,5.57
2019-06-15T20:18:18.237Z,5.70
2019-06-15T20:20:49.541Z,6.30
2019-06-15T20:23:20.809Z,8.40
2019-06-15T20:25:52.194Z,5.77
2019-06-15T20:28:23.539Z,5.10
2019-06-15T20:30:57.132Z,5.83
2019-06-15T20:33:28.045Z,8.10
2019-06-15T20:35:59.270Z,5.63
2019-06-15T20:38:30.611Z,5.80
2019-06-15T20:41:01.971Z,4.40
2019-06-15T20:43:33.577Z,5.67
2019-06-15T20:46:07.150Z,6.10
2019-06-15T20:48:38.213Z,6.60
2019-06-15T20:51:10.435Z,7.13
2019-06-15T20:53:41.887Z,6.23
2019-06-15T20:56:13.632Z,6.70
2019-06-15T20:58:44.903Z,6.70
2019-06-15T21:01:16.493Z,5.30
2019-06-15T21:03:48.241Z,6.87
2019-06-15T21:06:19.573Z,6.50
2019-06-15T21:08:51.259Z,6.77
2019-06-15T21:11:22.845Z,6.23
2019-06-15T21:13:55.902Z,6.10
2019-06-15T21:16:27.442Z,6.57
2019-06-15T21:18:59.844Z,5.97
2019-06-15T21:21:31.092Z,6.80
2019-06-15T21:24:02.532Z,8.73
2019-06-15T21:26:34.164Z,8.10
2019-06-15T21:29:06.703Z,8.60
2019-06-15T21:31:38.507Z,7.70
2019-06-15T21:34:09.755Z,7.00
2019-06-15T21:36:41.014Z,7.20
2019-06-15T21:39:12.267Z,7.67
2019-06-15T21:41:46.118Z,7.10
2019-06-15T21:44:16.912Z,7.40
2019-06-15T21:46:48.249Z,6.30
2019-06-15T21:49:19.859Z,7.13
2019-06-15T21:51:52.311Z,6.80
2019-06-15T21:54:26.721Z,10.37
2019-06-15T21:56:57.743Z,6.50
2019-06-15T21:59:29.637Z,6.63
2019-06-15T22:02:01.490Z,7.83
2019-06-15T22:04:32.732Z,7.50
2019-06-15T22:07:06.480Z,7.00
2019-06-15T22:09:37.262Z,9.07
2019-06-15T22:12:08.980Z,7.13
2019-06-15T22:14:40.549Z,8.03
2019-06-15T22:17:12.050Z,6.53
2019-06-15T22:19:43.554Z,7.10
2019-06-15T22:22:16.446Z,8.40
2019-06-15T22:24:48.725Z,10.07
2019-06-15T22:27:20.106Z,10.03
2019-06-15T22:29:51.732Z,10.77
2019-06-15T22:32:22.966Z,10.00
2019-06-15T22:34:56.317Z,12.17
2019-06-15T22:37:27.329Z,12.07
2019-06-15T22:39:58.695Z,13.40
2019-06-15T22:42:30.312Z,15.17
2019-06-15T22:45:01.577Z,14.67
2019-06-15T22:47:32.983Z,18.50
2019-06-15T22:50:06.752Z,17.37
2019-06-15T22:52:38.943Z,16.27
2019-06-15T22:55:10.737Z,16.23
2019-06-15T22:57:42.382Z,16.93
2019-06-15T23:00:13.884Z,15.20
2019-06-15T23:02:46.092Z,15.20
2019-06-15T23:05:17.462Z,15.17
2019-06-15T23:07:48.889Z,16.63
2019-06-15T23:10:20.237Z,15.17
2019-06-15T23:12:51.774Z,15.13
2019-06-15T23:15:23.138Z,14.17
2019-06-15T23:17:57.196Z,12.80
2019-06-15T23:20:28.187Z,12.47
2019-06-15T23:22:59.399Z,12.37
2019-06-15T23:25:30.731Z,12.70
2019-06-15T23:28:02.139Z,11.43
2019-06-15T23:30:36.371Z,11.13
2019-06-15T23:33:06.883Z,10.53
2019-06-15T23:35:46.628Z,10.33
2019-06-15T23:38:18.244Z,14.57
2019-06-15T23:40:49.528Z,9.80
2019-06-15T23:43:20.909Z,9.80
2019-06-15T23:45:52.227Z,9.63
2019-06-15T23:48:23.806Z,9.60
2019-06-15T23:50:56.888Z,9.63
2019-06-15T23:53:28.282Z,8.53
2019-06-15T23:55:59.624Z,8.53
2019-06-15T23:58:31.236Z,8.27
